• Join FlightAware (Why Join?)
  • Login
  • US Flag 
05:08AM EDT


 

Airport Tracker/Info


-or-


 

Live Flight TrackerFlight Track Log ✈ JBU33 ✈ 28-Apr-2013 ✈ KBTV - KJFK

Flight Track Log - Related Links

Times and Time Zones

All times are in EDT time to prevent confusion due to time zone crossing. See the JBU33 flight status page for this flight to view local times or setup timezone preferences in your user account.

Time Position Orientation Groundspeed Altitude Reporting Facility
EDT Latitude Longitude Course Direction KTS MPH feet Rate Location/Type
01:25PM 44.3925 -73.1403 196° South 181 208 4,500  Level Boston Center
01:26PM 44.3361 -73.1483 186° South 204 235 7,800 3,000 Climbing Boston Center
01:27PM 44.2569 -73.1561 184° South 247 284 10,500 2,220 Climbing Boston Center
01:28PM 44.0634 -73.3011 194° South  Level FlightAware Approximate
01:28PM 44.1672 -73.1664 185° South 307 353 12,300  Level Boston Center
01:29PM 43.9818 -73.3283 194° South  Level FlightAware Approximate
01:29PM 44.0756 -73.1856 189° South 340 391 15,100  Level Boston Center
01:30PM 43.9004 -73.3565 196° South  Level FlightAware Approximate
01:30PM 43.9794 -73.2192 194° South 353 406 17,500  Level Boston Center
01:31PM 43.8731 -73.2494 192° South 375 432 19,300 1,920 Climbing Boston Center
01:32PM 43.7644 -73.2794 191° South 395 455 21,400 1,860 Climbing Boston Center
01:33PM 43.6497 -73.3094 191° South 417 480 23,100 1,260 Climbing Boston Center
01:34PM 43.5306 -73.3422 191° South 429 494 24,000 600 Climbing Boston Center
01:35PM 43.4117 -73.3719 190° South 434 499 24,400 900 Climbing Boston Center
01:36PM 43.2925 -73.4042 191° South 434 499 25,900 780 Climbing Boston Center
01:37PM 43.1692 -73.4364 191° South 440 506 26,000 60 Climbing Boston Center
01:38PM 43.0586 -73.4686 192° South 451 519 26,100 960 Climbing Boston Center
01:39PM 42.9372 -73.5008 191° South 451 519 28,000 900 Climbing Boston Center
01:40PM 42.8036 -73.5353 191° South 451 519 28,000  Level Boston Center
01:41PM 42.6761 -73.5697 191° South 456 525 28,000  Level Boston Center
01:42PM 42.5528 -73.6011 191° South 456 525 28,000  Level Boston Center
01:43PM 42.4275 -73.6356 191° South 456 525 28,000  Level Boston Center
01:44PM 42.2897 -73.6639 189° South 461 531 28,000  Level Boston Center
01:45PM 42.1664 -73.6922 190° South 456 525 28,000  Level Boston Center
01:46PM 42.0261 -73.7342 193° South 470 541 28,000  Level Boston Center
01:47PM 41.9089 -73.7931 201° Southwest 464 534 28,000 -180 Level Boston Center
01:48PM 41.8406 -73.9225 235° Southwest 423 487 27,700 -1,260 Descending Boston Center
01:50PM 41.6497 -74.0275 202° Southwest 426 490 24,500 -1,500 Descending New York Center
01:51PM 41.5369 -74.0414 185° South 399 459 23,400 -1,740 Descending New York Center
01:52PM 41.4367 -74.0558 186° South 375 432 21,100 -1,740 Descending New York Center
01:53PM 41.3500 -74.1014 202° Southwest 336 387 20,000 -600 Descending New York Center
01:54PM 41.3183 -74.1853 243° Southwest 299 344 20,000  Level New York Center
01:55PM 41.2544 -74.3036 234° Southwest 314 361 20,000  Level New York Center
01:56PM 41.1917 -74.3883 225° Southwest 321 369 20,000  Level New York Center
01:57PM 41.1264 -74.4731 224° Southwest 326 375 20,000  Level New York Center
01:58PM 41.0328 -74.4736 180° South 305 351 20,000 -240 Level New York Center
01:59PM 40.9753 -74.3769 128° Southeast 263 303 19,600 -420 Descending New York Center
01:59PM 40.9500 -74.3167 119° Southeast 347 399 19,400 -420 Descending New York TRACON
02:00PM 40.9167 -74.2000 111° Southeast 343 395 19,000 -780 Descending New York TRACON
02:01PM 40.8667 -74.0833 120° Southeast 335 386 17,900 -1,260 Descending New York TRACON
02:02PM 40.8333 -73.9833 114° Southeast 321 369 16,500 -1,020 Descending New York TRACON
02:03PM 40.7833 -73.8667 119° Southeast 316 364 15,900 -1,140 Descending New York TRACON
02:04PM 40.7500 -73.7833 118° Southeast 325 374 14,400 -1,560 Descending New York TRACON
02:05PM 40.7167 -73.6833 114° Southeast 328 377 13,000 -720 Descending New York TRACON
02:06PM 40.6667 -73.5833 123° Southeast 316 364 13,000 -660 Level New York TRACON
02:07PM 40.6000 -73.5333 150° Southeast 302 348 11,700 -1,560 Descending New York TRACON
02:08PM 40.5167 -73.5333 180° South 298 343 9,900 -1,800 Descending New York TRACON
02:09PM 40.4500 -73.5667 201° Southwest 285 328 8,100 -960 Descending New York TRACON
02:10PM 40.3667 -73.6333 211° Southwest 287 330 8,000 -780 Descending New York TRACON
02:11PM 40.3500 -73.7000 252° West 273 314 6,600 -1,800 Descending New York TRACON
02:12PM 40.3667 -73.8000 282° West 266 306 4,600 -1,380 Descending New York TRACON
02:13PM 40.4000 -73.8833 298° West 226 260 3,900 -840 Descending New York TRACON
02:14PM 40.4333 -73.9500 303° West 223 257 3,000 -480 Descending New York TRACON
02:15PM 40.4833 -73.9667 346° North 220 253 3,000 -60 Level New York TRACON
02:16PM 40.5333 -73.9500 14° North 198 228 2,900 -420 Descending New York TRACON
02:17PM 40.5833 -73.9167 27° Northeast 195 224 2,200 -720 Descending New York TRACON
02:18PM 40.6333 -73.8833 27° Northeast 185 213 1,500 -660 Descending New York TRACON
02:19PM 40.6667 -73.8500 37° Northeast 143 165 900 -600 Descending New York TRACON